sensor_id;sensor_type;location;lat;lon;timestamp;P1;durP1;ratioP1;P2;durP2;ratioP2
74269;SDS011;62754;48.252;11.654;2022-12-11T00:02:06;27.50;;;14.57;;
74269;SDS011;62754;48.252;11.654;2022-12-11T00:04:32;27.52;;;13.77;;
74269;SDS011;62754;48.252;11.654;2022-12-11T00:06:58;26.88;;;12.80;;
74269;SDS011;62754;48.252;11.654;2022-12-11T00:09:24;29.15;;;14.02;;
74269;SDS011;62754;48.252;11.654;2022-12-11T00:11:50;29.08;;;14.45;;
74269;SDS011;62754;48.252;11.654;2022-12-11T00:14:15;31.42;;;15.23;;
74269;SDS011;62754;48.252;11.654;2022-12-11T00:16:41;28.20;;;12.80;;
74269;SDS011;62754;48.252;11.654;2022-12-11T00:19:07;26.25;;;13.00;;
74269;SDS011;62754;48.252;11.654;2022-12-11T00:21:33;28.55;;;13.52;;
74269;SDS011;62754;48.252;11.654;2022-12-11T00:23:59;31.50;;;13.82;;
74269;SDS011;62754;48.252;11.654;2022-12-11T00:26:24;30.85;;;14.50;;
74269;SDS011;62754;48.252;11.654;2022-12-11T00:28:51;25.88;;;12.30;;
74269;SDS011;62754;48.252;11.654;2022-12-11T00:31:19;28.35;;;12.57;;
74269;SDS011;62754;48.252;11.654;2022-12-11T00:33:45;24.60;;;13.13;;
74269;SDS011;62754;48.252;11.654;2022-12-11T00:36:12;25.88;;;12.70;;
74269;SDS011;62754;48.252;11.654;2022-12-11T00:38:40;26.40;;;13.27;;
74269;SDS011;62754;48.252;11.654;2022-12-11T00:41:06;28.20;;;12.98;;
74269;SDS011;62754;48.252;11.654;2022-12-11T00:43:32;24.98;;;12.45;;
74269;SDS011;62754;48.252;11.654;2022-12-11T00:45:58;25.50;;;11.50;;
74269;SDS011;62754;48.252;11.654;2022-12-11T00:48:24;26.15;;;12.73;;
74269;SDS011;62754;48.252;11.654;2022-12-11T00:50:50;25.08;;;12.13;;
74269;SDS011;62754;48.252;11.654;2022-12-11T00:53:18;27.33;;;12.63;;
74269;SDS011;62754;48.252;11.654;2022-12-11T00:55:44;23.33;;;11.35;;
74269;SDS011;62754;48.252;11.654;2022-12-11T00:58:10;28.58;;;13.77;;
74269;SDS011;62754;48.252;11.654;2022-12-11T01:00:36;24.63;;;12.10;;
74269;SDS011;62754;48.252;11.654;2022-12-11T01:03:03;25.60;;;12.45;;
74269;SDS011;62754;48.252;11.654;2022-12-11T01:05:29;29.17;;;12.35;;
74269;SDS011;62754;48.252;11.654;2022-12-11T01:07:55;23.30;;;11.85;;
74269;SDS011;62754;48.252;11.654;2022-12-11T01:10:21;23.98;;;11.40;;
74269;SDS011;62754;48.252;11.654;2022-12-11T01:12:47;25.85;;;11.85;;
74269;SDS011;62754;48.252;11.654;2022-12-11T01:15:13;22.70;;;11.95;;
74269;SDS011;62754;48.252;11.654;2022-12-11T01:17:38;24.83;;;11.85;;
74269;SDS011;62754;48.252;11.654;2022-12-11T01:20:04;24.92;;;11.85;;
74269;SDS011;62754;48.252;11.654;2022-12-11T01:22:30;25.70;;;12.43;;
74269;SDS011;62754;48.252;11.654;2022-12-11T01:24:56;21.70;;;10.63;;
74269;SDS011;62754;48.252;11.654;2022-12-11T01:27:22;27.00;;;12.50;;
74269;SDS011;62754;48.252;11.654;2022-12-11T01:29:48;24.75;;;10.73;;
74269;SDS011;62754;48.252;11.654;2022-12-11T01:32:14;23.80;;;11.55;;
74269;SDS011;62754;48.252;11.654;2022-12-11T01:34:40;28.60;;;11.77;;
74269;SDS011;62754;48.252;11.654;2022-12-11T01:37:06;21.60;;;11.10;;
74269;SDS011;62754;48.252;11.654;2022-12-11T01:39:31;26.08;;;11.93;;
74269;SDS011;62754;48.252;11.654;2022-12-11T01:41:58;21.55;;;11.10;;
74269;SDS011;62754;48.252;11.654;2022-12-11T01:46:50;23.50;;;12.00;;
74269;SDS011;62754;48.252;11.654;2022-12-11T01:49:16;21.50;;;10.85;;
74269;SDS011;62754;48.252;11.654;2022-12-11T01:51:48;23.85;;;10.77;;
74269;SDS011;62754;48.252;11.654;2022-12-11T01:54:18;21.70;;;10.48;;
74269;SDS011;62754;48.252;11.654;2022-12-11T01:56:45;19.73;;;10.73;;
74269;SDS011;62754;48.252;11.654;2022-12-11T01:59:14;20.67;;;10.45;;
74269;SDS011;62754;48.252;11.654;2022-12-11T02:01:51;22.98;;;10.55;;
74269;SDS011;62754;48.252;11.654;2022-12-11T02:04:22;21.02;;;10.35;;
74269;SDS011;62754;48.252;11.654;2022-12-11T02:06:49;18.00;;;9.43;;
74269;SDS011;62754;48.252;11.654;2022-12-11T02:09:18;20.92;;;11.18;;
74269;SDS011;62754;48.252;11.654;2022-12-11T02:12:00;21.10;;;11.05;;
74269;SDS011;62754;48.252;11.654;2022-12-11T02:17:27;23.42;;;10.35;;
74269;SDS011;62754;48.252;11.654;2022-12-11T02:29:07;18.65;;;9.30;;
74269;SDS011;62754;48.252;11.654;2022-12-11T02:31:45;21.15;;;9.43;;
74269;SDS011;62754;48.252;11.654;2022-12-11T02:34:22;21.35;;;9.82;;
74269;SDS011;62754;48.252;11.654;2022-12-11T02:36:50;18.17;;;9.32;;
74269;SDS011;62754;48.252;11.654;2022-12-11T02:39:18;20.58;;;9.40;;
74269;SDS011;62754;48.252;11.654;2022-12-11T02:41:49;20.65;;;10.35;;
74269;SDS011;62754;48.252;11.654;2022-12-11T02:44:16;19.65;;;9.43;;
74269;SDS011;62754;48.252;11.654;2022-12-11T02:46:46;20.40;;;9.52;;
74269;SDS011;62754;48.252;11.654;2022-12-11T02:49:12;17.38;;;8.88;;
74269;SDS011;62754;48.252;11.654;2022-12-11T02:51:40;19.30;;;9.35;;
74269;SDS011;62754;48.252;11.654;2022-12-11T02:54:10;15.90;;;8.43;;
74269;SDS011;62754;48.252;11.654;2022-12-11T02:56:44;16.65;;;8.15;;
74269;SDS011;62754;48.252;11.654;2022-12-11T02:59:20;16.95;;;8.38;;
74269;SDS011;62754;48.252;11.654;2022-12-11T03:01:51;18.30;;;9.00;;
74269;SDS011;62754;48.252;11.654;2022-12-11T03:04:17;15.50;;;7.93;;
74269;SDS011;62754;48.252;11.654;2022-12-11T03:06:44;15.45;;;7.88;;
74269;SDS011;62754;48.252;11.654;2022-12-11T03:09:15;13.38;;;7.10;;
74269;SDS011;62754;48.252;11.654;2022-12-11T03:11:41;15.57;;;7.82;;
74269;SDS011;62754;48.252;11.654;2022-12-11T03:14:07;16.67;;;8.15;;
74269;SDS011;62754;48.252;11.654;2022-12-11T03:16:37;14.93;;;7.45;;
74269;SDS011;62754;48.252;11.654;2022-12-11T03:24:29;14.75;;;7.07;;
74269;SDS011;62754;48.252;11.654;2022-12-11T03:27:06;13.90;;;6.45;;
74269;SDS011;62754;48.252;11.654;2022-12-11T03:29:46;12.07;;;6.53;;
74269;SDS011;62754;48.252;11.654;2022-12-11T03:32:35;12.07;;;6.22;;
74269;SDS011;62754;48.252;11.654;2022-12-11T03:35:07;14.10;;;7.10;;
74269;SDS011;62754;48.252;11.654;2022-12-11T03:37:39;12.25;;;6.57;;
74269;SDS011;62754;48.252;11.654;2022-12-11T03:40:09;14.48;;;6.78;;
74269;SDS011;62754;48.252;11.654;2022-12-11T03:42:37;12.35;;;6.38;;
74269;SDS011;62754;48.252;11.654;2022-12-11T03:45:06;12.40;;;6.35;;
74269;SDS011;62754;48.252;11.654;2022-12-11T03:47:32;10.95;;;6.25;;
74269;SDS011;62754;48.252;11.654;2022-12-11T03:49:59;11.32;;;6.00;;
74269;SDS011;62754;48.252;11.654;2022-12-11T03:52:28;12.45;;;6.45;;
74269;SDS011;62754;48.252;11.654;2022-12-11T03:54:56;13.82;;;6.55;;
74269;SDS011;62754;48.252;11.654;2022-12-11T03:57:27;12.13;;;6.40;;
74269;SDS011;62754;48.252;11.654;2022-12-11T03:59:55;12.02;;;6.78;;
74269;SDS011;62754;48.252;11.654;2022-12-11T04:02:21;13.75;;;6.72;;
74269;SDS011;62754;48.252;11.654;2022-12-11T04:04:47;11.23;;;6.38;;
74269;SDS011;62754;48.252;11.654;2022-12-11T04:07:13;12.05;;;6.30;;
74269;SDS011;62754;48.252;11.654;2022-12-11T04:09:39;14.05;;;6.65;;
74269;SDS011;62754;48.252;11.654;2022-12-11T04:12:05;12.55;;;6.20;;
74269;SDS011;62754;48.252;11.654;2022-12-11T04:14:30;14.20;;;7.18;;
74269;SDS011;62754;48.252;11.654;2022-12-11T04:16:57;12.20;;;6.30;;
74269;SDS011;62754;48.252;11.654;2022-12-11T04:19:24;13.93;;;6.93;;
74269;SDS011;62754;48.252;11.654;2022-12-11T04:21:51;13.43;;;7.00;;
74269;SDS011;62754;48.252;11.654;2022-12-11T04:24:16;11.95;;;6.70;;
74269;SDS011;62754;48.252;11.654;2022-12-11T04:26:43;14.05;;;6.97;;
74269;SDS011;62754;48.252;11.654;2022-12-11T04:29:10;12.68;;;6.80;;
74269;SDS011;62754;48.252;11.654;2022-12-11T04:31:36;13.27;;;7.25;;
74269;SDS011;62754;48.252;11.654;2022-12-11T04:34:02;14.07;;;6.85;;
74269;SDS011;62754;48.252;11.654;2022-12-11T04:36:28;12.90;;;6.78;;
74269;SDS011;62754;48.252;11.654;2022-12-11T04:38:54;13.45;;;7.25;;
74269;SDS011;62754;48.252;11.654;2022-12-11T04:41:19;12.93;;;6.75;;
74269;SDS011;62754;48.252;11.654;2022-12-11T04:43:45;14.07;;;7.55;;
74269;SDS011;62754;48.252;11.654;2022-12-11T04:46:18;13.63;;;8.00;;
74269;SDS011;62754;48.252;11.654;2022-12-11T04:48:45;12.90;;;6.93;;
74269;SDS011;62754;48.252;11.654;2022-12-11T04:51:12;14.63;;;6.97;;
74269;SDS011;62754;48.252;11.654;2022-12-11T04:53:39;14.75;;;8.07;;
74269;SDS011;62754;48.252;11.654;2022-12-11T04:56:06;14.48;;;7.78;;
74269;SDS011;62754;48.252;11.654;2022-12-11T04:58:33;15.80;;;8.00;;
74269;SDS011;62754;48.252;11.654;2022-12-11T05:01:00;16.42;;;6.97;;
74269;SDS011;62754;48.252;11.654;2022-12-11T05:03:31;14.55;;;7.45;;
74269;SDS011;62754;48.252;11.654;2022-12-11T05:05:57;14.18;;;7.47;;
74269;SDS011;62754;48.252;11.654;2022-12-11T05:08:22;15.88;;;6.93;;
74269;SDS011;62754;48.252;11.654;2022-12-11T05:10:58;14.07;;;7.85;;
74269;SDS011;62754;48.252;11.654;2022-12-11T05:13:26;14.60;;;7.15;;
74269;SDS011;62754;48.252;11.654;2022-12-11T05:15:52;13.85;;;7.00;;
74269;SDS011;62754;48.252;11.654;2022-12-11T05:18:18;13.40;;;7.18;;
74269;SDS011;62754;48.252;11.654;2022-12-11T05:20:44;15.15;;;7.95;;
74269;SDS011;62754;48.252;11.654;2022-12-11T05:23:10;14.88;;;7.30;;
74269;SDS011;62754;48.252;11.654;2022-12-11T05:25:36;17.35;;;8.68;;
74269;SDS011;62754;48.252;11.654;2022-12-11T05:28:02;19.83;;;10.13;;
74269;SDS011;62754;48.252;11.654;2022-12-11T05:30:27;17.33;;;7.85;;
74269;SDS011;62754;48.252;11.654;2022-12-11T05:32:53;14.73;;;7.07;;
74269;SDS011;62754;48.252;11.654;2022-12-11T05:35:19;13.75;;;6.43;;
74269;SDS011;62754;48.252;11.654;2022-12-11T05:37:45;15.25;;;7.75;;
74269;SDS011;62754;48.252;11.654;2022-12-11T05:40:10;15.43;;;8.25;;
74269;SDS011;62754;48.252;11.654;2022-12-11T05:42:36;16.05;;;7.93;;
74269;SDS011;62754;48.252;11.654;2022-12-11T05:45:02;15.63;;;7.05;;
74269;SDS011;62754;48.252;11.654;2022-12-11T05:47:29;15.10;;;7.38;;
74269;SDS011;62754;48.252;11.654;2022-12-11T05:49:55;13.77;;;7.63;;
74269;SDS011;62754;48.252;11.654;2022-12-11T05:52:21;13.75;;;7.30;;
74269;SDS011;62754;48.252;11.654;2022-12-11T05:54:48;13.73;;;6.70;;
74269;SDS011;62754;48.252;11.654;2022-12-11T05:57:14;15.23;;;7.80;;
74269;SDS011;62754;48.252;11.654;2022-12-11T05:59:40;14.48;;;7.32;;
74269;SDS011;62754;48.252;11.654;2022-12-11T06:02:06;13.80;;;7.30;;
74269;SDS011;62754;48.252;11.654;2022-12-11T06:04:32;14.15;;;6.50;;
74269;SDS011;62754;48.252;11.654;2022-12-11T06:06:58;13.85;;;7.05;;
74269;SDS011;62754;48.252;11.654;2022-12-11T06:09:23;15.25;;;7.40;;
74269;SDS011;62754;48.252;11.654;2022-12-11T06:11:49;13.32;;;7.35;;
74269;SDS011;62754;48.252;11.654;2022-12-11T06:14:15;13.40;;;6.68;;
74269;SDS011;62754;48.252;11.654;2022-12-11T06:16:41;14.80;;;6.70;;
74269;SDS011;62754;48.252;11.654;2022-12-11T06:19:06;14.45;;;7.47;;
74269;SDS011;62754;48.252;11.654;2022-12-11T06:21:38;14.52;;;7.13;;
74269;SDS011;62754;48.252;11.654;2022-12-11T06:24:03;14.05;;;6.75;;
74269;SDS011;62754;48.252;11.654;2022-12-11T06:26:30;14.52;;;7.18;;
74269;SDS011;62754;48.252;11.654;2022-12-11T06:28:56;15.00;;;7.40;;
74269;SDS011;62754;48.252;11.654;2022-12-11T06:31:22;11.40;;;5.90;;
74269;SDS011;62754;48.252;11.654;2022-12-11T06:33:48;15.80;;;6.85;;
74269;SDS011;62754;48.252;11.654;2022-12-11T06:36:15;15.57;;;7.68;;
74269;SDS011;62754;48.252;11.654;2022-12-11T06:38:42;13.35;;;6.70;;
74269;SDS011;62754;48.252;11.654;2022-12-11T06:41:08;14.45;;;6.93;;
74269;SDS011;62754;48.252;11.654;2022-12-11T06:43:35;13.15;;;6.90;;
74269;SDS011;62754;48.252;11.654;2022-12-11T06:46:09;15.55;;;7.82;;
74269;SDS011;62754;48.252;11.654;2022-12-11T06:48:36;15.98;;;7.03;;
74269;SDS011;62754;48.252;11.654;2022-12-11T06:51:06;13.95;;;7.20;;
74269;SDS011;62754;48.252;11.654;2022-12-11T06:53:39;15.77;;;7.90;;
74269;SDS011;62754;48.252;11.654;2022-12-11T06:56:14;13.77;;;7.07;;
74269;SDS011;62754;48.252;11.654;2022-12-11T06:58:41;14.25;;;7.32;;
74269;SDS011;62754;48.252;11.654;2022-12-11T07:03:40;15.77;;;8.48;;
74269;SDS011;62754;48.252;11.654;2022-12-11T07:06:06;15.63;;;7.70;;
74269;SDS011;62754;48.252;11.654;2022-12-11T07:08:32;14.95;;;7.47;;
74269;SDS011;62754;48.252;11.654;2022-12-11T07:11:01;15.13;;;8.13;;
74269;SDS011;62754;48.252;11.654;2022-12-11T07:13:31;16.33;;;7.60;;
74269;SDS011;62754;48.252;11.654;2022-12-11T07:15:57;15.35;;;8.15;;
74269;SDS011;62754;48.252;11.654;2022-12-11T07:18:23;16.35;;;7.80;;
74269;SDS011;62754;48.252;11.654;2022-12-11T07:20:49;17.33;;;8.27;;
74269;SDS011;62754;48.252;11.654;2022-12-11T07:23:15;16.15;;;7.63;;
74269;SDS011;62754;48.252;11.654;2022-12-11T07:25:41;15.18;;;7.82;;
74269;SDS011;62754;48.252;11.654;2022-12-11T07:28:06;15.15;;;7.93;;
74269;SDS011;62754;48.252;11.654;2022-12-11T07:30:32;17.45;;;8.27;;
74269;SDS011;62754;48.252;11.654;2022-12-11T07:32:58;16.83;;;8.05;;
74269;SDS011;62754;48.252;11.654;2022-12-11T07:35:24;15.77;;;7.55;;
74269;SDS011;62754;48.252;11.654;2022-12-11T07:37:50;18.42;;;8.90;;
74269;SDS011;62754;48.252;11.654;2022-12-11T07:40:15;17.65;;;8.77;;
74269;SDS011;62754;48.252;11.654;2022-12-11T07:42:41;16.58;;;8.52;;
74269;SDS011;62754;48.252;11.654;2022-12-11T07:45:07;16.60;;;8.57;;
74269;SDS011;62754;48.252;11.654;2022-12-11T07:47:33;17.35;;;9.10;;
74269;SDS011;62754;48.252;11.654;2022-12-11T07:49:59;17.63;;;8.57;;
74269;SDS011;62754;48.252;11.654;2022-12-11T07:52:25;16.33;;;8.77;;
74269;SDS011;62754;48.252;11.654;2022-12-11T07:54:50;20.15;;;8.82;;
74269;SDS011;62754;48.252;11.654;2022-12-11T07:57:16;19.60;;;9.13;;
74269;SDS011;62754;48.252;11.654;2022-12-11T07:59:42;17.95;;;8.73;;
74269;SDS011;62754;48.252;11.654;2022-12-11T08:02:10;18.27;;;9.18;;
74269;SDS011;62754;48.252;11.654;2022-12-11T08:04:36;15.15;;;8.25;;
74269;SDS011;62754;48.252;11.654;2022-12-11T08:07:02;16.92;;;8.73;;
74269;SDS011;62754;48.252;11.654;2022-12-11T08:09:28;18.13;;;8.70;;
74269;SDS011;62754;48.252;11.654;2022-12-11T08:11:54;17.42;;;9.30;;
74269;SDS011;62754;48.252;11.654;2022-12-11T08:14:19;17.17;;;9.20;;
74269;SDS011;62754;48.252;11.654;2022-12-11T08:16:45;17.55;;;8.35;;
74269;SDS011;62754;48.252;11.654;2022-12-11T08:19:12;17.67;;;8.85;;
74269;SDS011;62754;48.252;11.654;2022-12-11T08:21:38;17.08;;;9.18;;
74269;SDS011;62754;48.252;11.654;2022-12-11T08:24:04;19.73;;;10.52;;
74269;SDS011;62754;48.252;11.654;2022-12-11T08:26:30;18.38;;;9.77;;
74269;SDS011;62754;48.252;11.654;2022-12-11T08:28:57;22.88;;;10.05;;
74269;SDS011;62754;48.252;11.654;2022-12-11T08:31:23;19.52;;;9.95;;
74269;SDS011;62754;48.252;11.654;2022-12-11T08:33:50;15.70;;;8.35;;
74269;SDS011;62754;48.252;11.654;2022-12-11T08:36:17;17.45;;;8.88;;
74269;SDS011;62754;48.252;11.654;2022-12-11T08:38:44;16.95;;;8.90;;
74269;SDS011;62754;48.252;11.654;2022-12-11T08:41:14;17.75;;;8.88;;
74269;SDS011;62754;48.252;11.654;2022-12-11T08:43:42;20.05;;;9.25;;
74269;SDS011;62754;48.252;11.654;2022-12-11T08:46:08;17.65;;;9.10;;
74269;SDS011;62754;48.252;11.654;2022-12-11T08:48:35;19.23;;;10.00;;
74269;SDS011;62754;48.252;11.654;2022-12-11T08:51:03;19.85;;;9.63;;
74269;SDS011;62754;48.252;11.654;2022-12-11T08:53:31;19.20;;;9.32;;
74269;SDS011;62754;48.252;11.654;2022-12-11T08:56:00;17.33;;;8.70;;
74269;SDS011;62754;48.252;11.654;2022-12-11T08:58:27;18.35;;;9.63;;
74269;SDS011;62754;48.252;11.654;2022-12-11T09:00:53;17.08;;;8.90;;
74269;SDS011;62754;48.252;11.654;2022-12-11T09:03:19;20.52;;;9.77;;
74269;SDS011;62754;48.252;11.654;2022-12-11T09:05:44;20.33;;;9.73;;
74269;SDS011;62754;48.252;11.654;2022-12-11T09:08:10;20.33;;;10.02;;
74269;SDS011;62754;48.252;11.654;2022-12-11T09:10:36;18.10;;;9.52;;
74269;SDS011;62754;48.252;11.654;2022-12-11T09:13:02;20.98;;;10.50;;
74269;SDS011;62754;48.252;11.654;2022-12-11T09:15:28;21.83;;;10.57;;
74269;SDS011;62754;48.252;11.654;2022-12-11T09:17:54;19.30;;;10.43;;
74269;SDS011;62754;48.252;11.654;2022-12-11T09:20:20;19.58;;;9.63;;
74269;SDS011;62754;48.252;11.654;2022-12-11T09:22:46;20.13;;;10.50;;
74269;SDS011;62754;48.252;11.654;2022-12-11T09:25:11;21.42;;;9.98;;
74269;SDS011;62754;48.252;11.654;2022-12-11T09:27:37;20.17;;;10.48;;
74269;SDS011;62754;48.252;11.654;2022-12-11T09:30:03;17.92;;;9.07;;
74269;SDS011;62754;48.252;11.654;2022-12-11T09:32:29;19.48;;;10.07;;
74269;SDS011;62754;48.252;11.654;2022-12-11T09:34:55;19.35;;;9.93;;
74269;SDS011;62754;48.252;11.654;2022-12-11T09:37:21;18.48;;;9.38;;
74269;SDS011;62754;48.252;11.654;2022-12-11T09:39:47;18.02;;;9.13;;
74269;SDS011;62754;48.252;11.654;2022-12-11T09:45:09;16.17;;;8.25;;
74269;SDS011;62754;48.252;11.654;2022-12-11T09:47:47;15.55;;;8.45;;
74269;SDS011;62754;48.252;11.654;2022-12-11T09:50:31;16.45;;;8.73;;
74269;SDS011;62754;48.252;11.654;2022-12-11T09:53:12;18.67;;;9.07;;
74269;SDS011;62754;48.252;11.654;2022-12-11T09:56:03;16.92;;;8.63;;
74269;SDS011;62754;48.252;11.654;2022-12-11T10:01:32;17.73;;;9.25;;
74269;SDS011;62754;48.252;11.654;2022-12-11T10:04:14;16.30;;;7.93;;
74269;SDS011;62754;48.252;11.654;2022-12-11T10:17:36;16.15;;;8.10;;
74269;SDS011;62754;48.252;11.654;2022-12-11T10:20:13;14.75;;;8.20;;
74269;SDS011;62754;48.252;11.654;2022-12-11T10:22:41;15.13;;;8.00;;
74269;SDS011;62754;48.252;11.654;2022-12-11T10:25:13;16.88;;;8.55;;
74269;SDS011;62754;48.252;11.654;2022-12-11T10:27:45;14.25;;;8.63;;
74269;SDS011;62754;48.252;11.654;2022-12-11T10:35:27;15.65;;;8.98;;
74269;SDS011;62754;48.252;11.654;2022-12-11T10:38:31;17.05;;;8.80;;
74269;SDS011;62754;48.252;11.654;2022-12-11T10:41:00;16.25;;;8.65;;
74269;SDS011;62754;48.252;11.654;2022-12-11T10:43:36;16.38;;;8.60;;
74269;SDS011;62754;48.252;11.654;2022-12-11T10:46:03;16.65;;;9.05;;
74269;SDS011;62754;48.252;11.654;2022-12-11T10:48:30;15.82;;;8.00;;
74269;SDS011;62754;48.252;11.654;2022-12-11T10:53:30;14.85;;;7.75;;
74269;SDS011;62754;48.252;11.654;2022-12-11T10:55:57;13.98;;;7.72;;
74269;SDS011;62754;48.252;11.654;2022-12-11T10:58:25;13.40;;;7.70;;
74269;SDS011;62754;48.252;11.654;2022-12-11T11:03:30;13.82;;;7.07;;
74269;SDS011;62754;48.252;11.654;2022-12-11T11:06:01;12.32;;;6.80;;
74269;SDS011;62754;48.252;11.654;2022-12-11T11:08:38;12.52;;;6.55;;
74269;SDS011;62754;48.252;11.654;2022-12-11T11:11:12;10.77;;;5.75;;
74269;SDS011;62754;48.252;11.654;2022-12-11T11:14:03;10.05;;;5.57;;
74269;SDS011;62754;48.252;11.654;2022-12-11T11:16:44;11.13;;;5.63;;
74269;SDS011;62754;48.252;11.654;2022-12-11T11:19:19;9.77;;;5.10;;
74269;SDS011;62754;48.252;11.654;2022-12-11T11:21:47;8.38;;;5.05;;
74269;SDS011;62754;48.252;11.654;2022-12-11T11:24:22;12.95;;;5.50;;
74269;SDS011;62754;48.252;11.654;2022-12-11T11:26:51;8.55;;;5.32;;
74269;SDS011;62754;48.252;11.654;2022-12-11T11:29:27;9.20;;;5.50;;
74269;SDS011;62754;48.252;11.654;2022-12-11T11:32:11;8.07;;;4.28;;
74269;SDS011;62754;48.252;11.654;2022-12-11T11:34:41;7.60;;;4.47;;
74269;SDS011;62754;48.252;11.654;2022-12-11T11:39:57;6.90;;;4.03;;
74269;SDS011;62754;48.252;11.654;2022-12-11T11:45:14;8.27;;;4.65;;
74269;SDS011;62754;48.252;11.654;2022-12-11T11:47:51;8.57;;;5.40;;
74269;SDS011;62754;48.252;11.654;2022-12-11T11:50:21;9.93;;;5.22;;
74269;SDS011;62754;48.252;11.654;2022-12-11T11:52:57;11.63;;;7.07;;
74269;SDS011;62754;48.252;11.654;2022-12-11T11:55:36;11.68;;;7.20;;
74269;SDS011;62754;48.252;11.654;2022-12-11T11:58:21;12.82;;;7.35;;
74269;SDS011;62754;48.252;11.654;2022-12-11T12:00:55;12.20;;;7.38;;
74269;SDS011;62754;48.252;11.654;2022-12-11T12:03:22;13.82;;;8.40;;
74269;SDS011;62754;48.252;11.654;2022-12-11T12:17:05;12.60;;;7.78;;
74269;SDS011;62754;48.252;11.654;2022-12-11T12:19:49;12.77;;;7.25;;
74269;SDS011;62754;48.252;11.654;2022-12-11T12:22:37;11.23;;;6.57;;
74269;SDS011;62754;48.252;11.654;2022-12-11T12:30:27;12.10;;;7.07;;
74269;SDS011;62754;48.252;11.654;2022-12-11T12:38:10;13.90;;;7.53;;
74269;SDS011;62754;48.252;11.654;2022-12-11T12:40:48;14.07;;;7.45;;
74269;SDS011;62754;48.252;11.654;2022-12-11T12:48:23;13.13;;;7.32;;
74269;SDS011;62754;48.252;11.654;2022-12-11T12:50:51;12.90;;;7.20;;
74269;SDS011;62754;48.252;11.654;2022-12-11T12:53:25;12.90;;;6.65;;
74269;SDS011;62754;48.252;11.654;2022-12-11T12:55:54;13.50;;;7.35;;
74269;SDS011;62754;48.252;11.654;2022-12-11T13:01:31;12.98;;;7.32;;
74269;SDS011;62754;48.252;11.654;2022-12-11T13:03:58;17.40;;;9.20;;
74269;SDS011;62754;48.252;11.654;2022-12-11T13:06:44;15.30;;;7.82;;
74269;SDS011;62754;48.252;11.654;2022-12-11T13:11:47;14.52;;;7.22;;
74269;SDS011;62754;48.252;11.654;2022-12-11T13:16:39;15.15;;;7.03;;
74269;SDS011;62754;48.252;11.654;2022-12-11T13:21:57;11.35;;;6.10;;
74269;SDS011;62754;48.252;11.654;2022-12-11T13:24:43;12.90;;;6.97;;
74269;SDS011;62754;48.252;11.654;2022-12-11T13:27:25;12.02;;;6.45;;
74269;SDS011;62754;48.252;11.654;2022-12-11T13:30:04;11.13;;;7.35;;
74269;SDS011;62754;48.252;11.654;2022-12-11T13:32:30;21.00;;;10.57;;
74269;SDS011;62754;48.252;11.654;2022-12-11T13:34:58;15.15;;;8.20;;
74269;SDS011;62754;48.252;11.654;2022-12-11T13:37:39;12.70;;;7.45;;
74269;SDS011;62754;48.252;11.654;2022-12-11T13:42:48;13.25;;;6.90;;
74269;SDS011;62754;48.252;11.654;2022-12-11T13:45:39;13.93;;;7.57;;
74269;SDS011;62754;48.252;11.654;2022-12-11T13:48:15;14.27;;;7.55;;
74269;SDS011;62754;48.252;11.654;2022-12-11T13:50:46;10.70;;;6.70;;
74269;SDS011;62754;48.252;11.654;2022-12-11T13:53:15;13.15;;;7.32;;
74269;SDS011;62754;48.252;11.654;2022-12-11T13:55:42;11.05;;;6.05;;
74269;SDS011;62754;48.252;11.654;2022-12-11T13:58:15;11.82;;;6.22;;
74269;SDS011;62754;48.252;11.654;2022-12-11T14:00:50;10.57;;;5.97;;
74269;SDS011;62754;48.252;11.654;2022-12-11T14:03:21;13.52;;;6.13;;
74269;SDS011;62754;48.252;11.654;2022-12-11T14:05:48;11.05;;;6.45;;
74269;SDS011;62754;48.252;11.654;2022-12-11T14:08:19;10.38;;;5.60;;
74269;SDS011;62754;48.252;11.654;2022-12-11T14:10:57;11.85;;;5.85;;
74269;SDS011;62754;48.252;11.654;2022-12-11T14:13:28;10.07;;;5.93;;
74269;SDS011;62754;48.252;11.654;2022-12-11T14:15:58;9.43;;;5.85;;
74269;SDS011;62754;48.252;11.654;2022-12-11T14:18:25;11.00;;;6.07;;
74269;SDS011;62754;48.252;11.654;2022-12-11T14:20:57;9.70;;;5.28;;
74269;SDS011;62754;48.252;11.654;2022-12-11T14:23:26;10.27;;;6.03;;
74269;SDS011;62754;48.252;11.654;2022-12-11T14:26:00;10.50;;;5.80;;
74269;SDS011;62754;48.252;11.654;2022-12-11T14:28:29;10.43;;;5.18;;
74269;SDS011;62754;48.252;11.654;2022-12-11T14:36:05;9.45;;;4.80;;
74269;SDS011;62754;48.252;11.654;2022-12-11T14:38:36;10.82;;;5.55;;
74269;SDS011;62754;48.252;11.654;2022-12-11T14:41:11;9.35;;;4.80;;
74269;SDS011;62754;48.252;11.654;2022-12-11T14:43:44;10.18;;;5.28;;
74269;SDS011;62754;48.252;11.654;2022-12-11T14:48:59;10.07;;;5.13;;
74269;SDS011;62754;48.252;11.654;2022-12-11T14:51:29;9.30;;;4.85;;
74269;SDS011;62754;48.252;11.654;2022-12-11T14:53:59;10.30;;;5.40;;
74269;SDS011;62754;48.252;11.654;2022-12-11T14:56:26;9.07;;;4.70;;
74269;SDS011;62754;48.252;11.654;2022-12-11T14:58:56;9.57;;;5.75;;
74269;SDS011;62754;48.252;11.654;2022-12-11T15:01:31;11.38;;;5.95;;
74269;SDS011;62754;48.252;11.654;2022-12-11T15:06:30;9.32;;;5.35;;
74269;SDS011;62754;48.252;11.654;2022-12-11T15:09:08;10.57;;;5.40;;
74269;SDS011;62754;48.252;11.654;2022-12-11T15:11:34;11.82;;;5.50;;
74269;SDS011;62754;48.252;11.654;2022-12-11T15:14:02;12.32;;;6.13;;
74269;SDS011;62754;48.252;11.654;2022-12-11T15:16:30;12.93;;;6.68;;
74269;SDS011;62754;48.252;11.654;2022-12-11T15:18:58;7.80;;;2.97;;
74269;SDS011;62754;48.252;11.654;2022-12-11T15:21:28;7.10;;;2.40;;
74269;SDS011;62754;48.252;11.654;2022-12-11T15:23:56;8.90;;;1.90;;
74269;SDS011;62754;48.252;11.654;2022-12-11T15:26:34;6.32;;;2.50;;
74269;SDS011;62754;48.252;11.654;2022-12-11T15:29:04;4.65;;;1.95;;
74269;SDS011;62754;48.252;11.654;2022-12-11T15:31:32;7.70;;;2.33;;
74269;SDS011;62754;48.252;11.654;2022-12-11T15:33:59;6.78;;;2.95;;
74269;SDS011;62754;48.252;11.654;2022-12-11T15:36:32;7.10;;;2.80;;
74269;SDS011;62754;48.252;11.654;2022-12-11T15:39:00;6.88;;;2.95;;
74269;SDS011;62754;48.252;11.654;2022-12-11T15:41:26;8.05;;;3.17;;
74269;SDS011;62754;48.252;11.654;2022-12-11T15:43:55;7.25;;;3.13;;
74269;SDS011;62754;48.252;11.654;2022-12-11T15:46:21;8.20;;;3.70;;
74269;SDS011;62754;48.252;11.654;2022-12-11T15:48:48;7.78;;;3.63;;
74269;SDS011;62754;48.252;11.654;2022-12-11T15:51:14;7.35;;;3.53;;
74269;SDS011;62754;48.252;11.654;2022-12-11T15:53:40;7.90;;;3.70;;
74269;SDS011;62754;48.252;11.654;2022-12-11T15:56:13;7.32;;;3.75;;
74269;SDS011;62754;48.252;11.654;2022-12-11T15:58:40;8.55;;;4.00;;
74269;SDS011;62754;48.252;11.654;2022-12-11T16:01:08;7.22;;;3.63;;
74269;SDS011;62754;48.252;11.654;2022-12-11T16:03:34;8.00;;;3.50;;
74269;SDS011;62754;48.252;11.654;2022-12-11T16:06:00;9.23;;;4.05;;
74269;SDS011;62754;48.252;11.654;2022-12-11T16:08:26;7.78;;;4.55;;
74269;SDS011;62754;48.252;11.654;2022-12-11T16:10:52;8.50;;;4.53;;
74269;SDS011;62754;48.252;11.654;2022-12-11T16:13:19;9.05;;;5.10;;
74269;SDS011;62754;48.252;11.654;2022-12-11T16:15:45;10.35;;;4.93;;
74269;SDS011;62754;48.252;11.654;2022-12-11T16:18:13;11.20;;;5.60;;